WZZ42A LHBP-LUKK
Flight info
| Callsign | WZZ42A |
|---|---|
| Flight time | 1h 4m |
| Altitude | 35000 |
| Route | VETIK DCT BADOR DCT BUSES |
| Aircraft | A21N/M-SDE2E3FGHIRWXY/LB1 |
Departure
| Time | 2026-05-04 18:24 |
|---|---|
| Airport | Budapest Liszt Ferenc International Airport (LHBP) |
Arrival
| Time | 2026-05-04 19:29 |
|---|---|
| Airport | Chişinău International Airport (LUKK) |
| Time | Latitude | Longitude | Altitude | Speed | Heading |
|---|---|---|---|---|---|
| 2026-05-04 17:44 | 47.43241 | 19.25738 | 466 ft | 0 kts | 42° |
| 2026-05-04 18:13 | 47.43240 | 19.25737 | 466 ft | 1 kts | 42° |
| 2026-05-04 18:14 | 47.43229 | 19.25721 | 465 ft | 2 kts | 44° |
| 2026-05-04 18:14 | 47.43218 | 19.25706 | 465 ft | 2 kts | 42° |
| 2026-05-04 18:14 | 47.43207 | 19.25691 | 464 ft | 2 kts | 43° |
| 2026-05-04 18:15 | 47.43194 | 19.25674 | 464 ft | 1 kts | 353° |
| 2026-05-04 18:15 | 47.43185 | 19.25684 | 464 ft | 0 kts | 311° |
| 2026-05-04 18:17 | 47.43190 | 19.25675 | 464 ft | 3 kts | 312° |
| 2026-05-04 18:17 | 47.43282 | 19.25532 | 464 ft | 15 kts | 311° |
| 2026-05-04 18:18 | 47.43355 | 19.25465 | 466 ft | 13 kts | 9° |
| 2026-05-04 18:18 | 47.43451 | 19.25536 | 468 ft | 17 kts | 38° |
| 2026-05-04 18:18 | 47.43551 | 19.25665 | 471 ft | 20 kts | 43° |
| 2026-05-04 18:18 | 47.43653 | 19.25809 | 475 ft | 21 kts | 42° |
| 2026-05-04 18:19 | 47.43817 | 19.25862 | 478 ft | 9 kts | 341° |
| 2026-05-04 18:19 | 47.43876 | 19.25892 | 479 ft | 9 kts | 40° |
| 2026-05-04 18:19 | 47.43926 | 19.25960 | 480 ft | 10 kts | 41° |
| 2026-05-04 18:20 | 47.43993 | 19.26026 | 481 ft | 13 kts | 7° |
| 2026-05-04 18:20 | 47.44072 | 19.25953 | 483 ft | 15 kts | 312° |
| 2026-05-04 18:20 | 47.44160 | 19.25813 | 485 ft | 20 kts | 312° |
| 2026-05-04 18:20 | 47.44250 | 19.25665 | 486 ft | 19 kts | 313° |
| 2026-05-04 18:21 | 47.44344 | 19.25562 | 489 ft | 16 kts | 348° |
| 2026-05-04 18:21 | 47.44445 | 19.25589 | 492 ft | 14 kts | 32° |
| 2026-05-04 18:21 | 47.44498 | 19.25700 | 493 ft | 14 kts | 77° |
| 2026-05-04 18:21 | 47.44487 | 19.25842 | 491 ft | 14 kts | 130° |
| 2026-05-04 18:22 | 47.44476 | 19.25862 | 490 ft | 2 kts | 131° |
| 2026-05-04 18:22 | 47.44470 | 19.25872 | 490 ft | 2 kts | 131° |
| 2026-05-04 18:22 | 47.44452 | 19.25901 | 490 ft | 5 kts | 132° |
| 2026-05-04 18:22 | 47.44435 | 19.25928 | 489 ft | 0 kts | 133° |
| 2026-05-04 18:23 | 47.44430 | 19.25935 | 489 ft | 1 kts | 133° |
| 2026-05-04 18:23 | 47.44420 | 19.25951 | 489 ft | 0 kts | 133° |
| 2026-05-04 18:23 | 47.44414 | 19.25961 | 489 ft | 0 kts | 133° |
| 2026-05-04 18:23 | 47.44413 | 19.25962 | 489 ft | 4 kts | 133° |
| 2026-05-04 18:24 | 47.44175 | 19.26346 | 482 ft | 94 kts | 131° |
| 2026-05-04 18:24 | 47.43559 | 19.27347 | 458 ft | 166 kts | 133° |
| 2026-05-04 18:24 | 47.42721 | 19.28708 | 1107 ft | 176 kts | 135° |
| 2026-05-04 18:24 | 47.41918 | 19.29982 | 2027 ft | 175 kts | 134° |
| 2026-05-04 18:25 | 47.41198 | 19.31425 | 2711 ft | 183 kts | 124° |
| 2026-05-04 18:25 | 47.40617 | 19.33170 | 3223 ft | 198 kts | 116° |
| 2026-05-04 18:25 | 47.40058 | 19.35075 | 3787 ft | 209 kts | 118° |
| 2026-05-04 18:25 | 47.39373 | 19.37030 | 4284 ft | 226 kts | 121° |
| 2026-05-04 18:26 | 47.38579 | 19.39127 | 4737 ft | 247 kts | 118° |
| 2026-05-04 18:26 | 47.38168 | 19.41686 | 5253 ft | 271 kts | 86° |
| 2026-05-04 18:26 | 47.38848 | 19.44270 | 6017 ft | 283 kts | 52° |
| 2026-05-04 18:26 | 47.40261 | 19.46249 | 6986 ft | 285 kts | 41° |
| 2026-05-04 18:27 | 47.41730 | 19.48182 | 7883 ft | 287 kts | 49° |
| 2026-05-04 18:27 | 47.42614 | 19.50782 | 8751 ft | 288 kts | 81° |
| 2026-05-04 18:27 | 47.42525 | 19.53683 | 9664 ft | 287 kts | 101° |
| 2026-05-04 18:27 | 47.42121 | 19.56560 | 10464 ft | 292 kts | 103° |
| 2026-05-04 18:28 | 47.41693 | 19.59574 | 11002 ft | 309 kts | 102° |
| 2026-05-04 18:28 | 47.41290 | 19.62767 | 11461 ft | 326 kts | 100° |
| 2026-05-04 18:28 | 47.40911 | 19.66136 | 12114 ft | 336 kts | 100° |
| 2026-05-04 18:28 | 47.40556 | 19.69539 | 12925 ft | 340 kts | 99° |
| 2026-05-04 18:29 | 47.40212 | 19.72958 | 13725 ft | 342 kts | 99° |
| 2026-05-04 18:29 | 47.39869 | 19.76441 | 14493 ft | 345 kts | 98° |
| 2026-05-04 18:29 | 47.39525 | 19.79956 | 15263 ft | 349 kts | 98° |
| 2026-05-04 18:29 | 47.39183 | 19.83475 | 15975 ft | 353 kts | 98° |
| 2026-05-04 18:30 | 47.38531 | 19.90703 | 17299 ft | 361 kts | 91° |
| 2026-05-04 18:30 | 47.38717 | 19.94382 | 17943 ft | 363 kts | 81° |
| 2026-05-04 18:30 | 47.39125 | 19.98094 | 18602 ft | 367 kts | 79° |
| 2026-05-04 18:31 | 47.39551 | 20.01801 | 19216 ft | 370 kts | 79° |
| 2026-05-04 18:31 | 47.39961 | 20.05563 | 19836 ft | 374 kts | 79° |
| 2026-05-04 18:31 | 47.40351 | 20.09348 | 20450 ft | 377 kts | 80° |
| 2026-05-04 18:31 | 47.40728 | 20.13162 | 21036 ft | 380 kts | 80° |
| 2026-05-04 18:32 | 47.41098 | 20.17008 | 21613 ft | 383 kts | 81° |
| 2026-05-04 18:32 | 47.41470 | 20.20949 | 22155 ft | 386 kts | 81° |
| 2026-05-04 18:32 | 47.41834 | 20.24862 | 22689 ft | 390 kts | 81° |
| 2026-05-04 18:32 | 47.42199 | 20.28822 | 23223 ft | 393 kts | 81° |
| 2026-05-04 18:33 | 47.42562 | 20.32788 | 23744 ft | 396 kts | 81° |
| 2026-05-04 18:33 | 47.42930 | 20.36858 | 24270 ft | 399 kts | 81° |
| 2026-05-04 18:33 | 47.43296 | 20.40911 | 24766 ft | 401 kts | 80° |
| 2026-05-04 18:33 | 47.43660 | 20.44966 | 25234 ft | 404 kts | 80° |
| 2026-05-04 18:34 | 47.44030 | 20.49089 | 25685 ft | 407 kts | 80° |
| 2026-05-04 18:34 | 47.44399 | 20.53229 | 26128 ft | 410 kts | 80° |
| 2026-05-04 18:34 | 47.44775 | 20.57454 | 26568 ft | 413 kts | 80° |
| 2026-05-04 18:34 | 47.45143 | 20.61627 | 26990 ft | 415 kts | 80° |
| 2026-05-04 18:35 | 47.45514 | 20.65828 | 27395 ft | 418 kts | 80° |
| 2026-05-04 18:35 | 47.45890 | 20.70113 | 27796 ft | 421 kts | 80° |
| 2026-05-04 18:35 | 47.46262 | 20.74373 | 28199 ft | 423 kts | 80° |
| 2026-05-04 18:35 | 47.46640 | 20.78714 | 28597 ft | 425 kts | 80° |
| 2026-05-04 18:36 | 47.46962 | 20.82427 | 28929 ft | 428 kts | 80° |
| 2026-05-04 18:36 | 47.47338 | 20.86787 | 29314 ft | 430 kts | 80° |
| 2026-05-04 18:36 | 47.47714 | 20.91171 | 29702 ft | 432 kts | 80° |
| 2026-05-04 18:36 | 47.48092 | 20.95584 | 30085 ft | 434 kts | 80° |
| 2026-05-04 18:37 | 47.48469 | 21.00020 | 30447 ft | 436 kts | 80° |
| 2026-05-04 18:37 | 47.48845 | 21.04460 | 30800 ft | 439 kts | 79° |
| 2026-05-04 18:37 | 47.49226 | 21.08967 | 31152 ft | 441 kts | 80° |
| 2026-05-04 18:37 | 47.49600 | 21.13423 | 31543 ft | 442 kts | 80° |
| 2026-05-04 18:38 | 47.49972 | 21.17880 | 32020 ft | 440 kts | 80° |
| 2026-05-04 18:38 | 47.50342 | 21.22343 | 32516 ft | 439 kts | 80° |
| 2026-05-04 18:38 | 47.50713 | 21.26844 | 32996 ft | 437 kts | 79° |
| 2026-05-04 18:38 | 47.51077 | 21.31271 | 33459 ft | 436 kts | 79° |
| 2026-05-04 18:39 | 47.51442 | 21.35712 | 33849 ft | 437 kts | 79° |
| 2026-05-04 18:39 | 47.51803 | 21.40138 | 34187 ft | 438 kts | 79° |
| 2026-05-04 18:39 | 47.52168 | 21.44637 | 34517 ft | 440 kts | 79° |
| 2026-05-04 18:39 | 47.52529 | 21.49110 | 34815 ft | 441 kts | 79° |
| 2026-05-04 18:40 | 47.52891 | 21.53600 | 35030 ft | 443 kts | 79° |
| 2026-05-04 18:40 | 47.53611 | 21.62637 | 35051 ft | 444 kts | 79° |
| 2026-05-04 18:41 | 47.54319 | 21.71628 | 35054 ft | 443 kts | 81° |
| 2026-05-04 18:41 | 47.55028 | 21.80695 | 35053 ft | 443 kts | 80° |
| 2026-05-04 18:42 | 47.55727 | 21.89709 | 35053 ft | 443 kts | 80° |
| 2026-05-04 18:42 | 47.56420 | 21.98784 | 35054 ft | 442 kts | 81° |
| 2026-05-04 18:43 | 47.56934 | 22.07808 | 35054 ft | 444 kts | 85° |
| 2026-05-04 18:43 | 47.56799 | 22.16950 | 35052 ft | 447 kts | 91° |
| 2026-05-04 18:44 | 47.56105 | 22.26073 | 35053 ft | 448 kts | 94° |
| 2026-05-04 18:44 | 47.55342 | 22.35190 | 35051 ft | 448 kts | 94° |
| 2026-05-04 18:45 | 47.54581 | 22.44248 | 35052 ft | 447 kts | 94° |
| 2026-05-04 18:45 | 47.53814 | 22.53337 | 35055 ft | 446 kts | 94° |
| 2026-05-04 18:46 | 47.53040 | 22.62443 | 35056 ft | 446 kts | 94° |
| 2026-05-04 18:46 | 47.52263 | 22.71502 | 35053 ft | 447 kts | 94° |
| 2026-05-04 18:47 | 47.51475 | 22.80600 | 35058 ft | 447 kts | 95° |
| 2026-05-04 18:47 | 47.50680 | 22.89686 | 35062 ft | 447 kts | 95° |
| 2026-05-04 18:48 | 47.49880 | 22.98754 | 35059 ft | 447 kts | 95° |
| 2026-05-04 18:48 | 47.49073 | 23.07811 | 35063 ft | 446 kts | 95° |
| 2026-05-04 18:49 | 47.48259 | 23.16869 | 35061 ft | 446 kts | 95° |
| 2026-05-04 18:49 | 47.47437 | 23.25927 | 35063 ft | 446 kts | 95° |
| 2026-05-04 18:50 | 47.46609 | 23.34982 | 35059 ft | 446 kts | 95° |
| 2026-05-04 18:50 | 47.45774 | 23.44022 | 35067 ft | 446 kts | 95° |
| 2026-05-04 18:51 | 47.44931 | 23.53072 | 35073 ft | 446 kts | 95° |
| 2026-05-04 18:51 | 47.44083 | 23.62113 | 35069 ft | 445 kts | 95° |
| 2026-05-04 18:52 | 47.43232 | 23.71096 | 35075 ft | 445 kts | 95° |
| 2026-05-04 18:52 | 47.42370 | 23.80116 | 35076 ft | 445 kts | 95° |
| 2026-05-04 18:53 | 47.41501 | 23.89133 | 35079 ft | 445 kts | 95° |
| 2026-05-04 18:53 | 47.40630 | 23.98098 | 35079 ft | 445 kts | 95° |
| 2026-05-04 18:54 | 47.39745 | 24.07134 | 35083 ft | 445 kts | 95° |
| 2026-05-04 18:54 | 47.38855 | 24.16138 | 35092 ft | 445 kts | 95° |
| 2026-05-04 18:55 | 47.37956 | 24.25162 | 35102 ft | 445 kts | 95° |
| 2026-05-04 18:55 | 47.36597 | 24.38654 | 35104 ft | 445 kts | 95° |
| 2026-05-04 18:56 | 47.35685 | 24.47622 | 35100 ft | 445 kts | 95° |
| 2026-05-04 18:56 | 47.34758 | 24.56665 | 35102 ft | 445 kts | 95° |
| 2026-05-04 18:57 | 47.33834 | 24.65610 | 35102 ft | 446 kts | 96° |
| 2026-05-04 18:57 | 47.32893 | 24.74658 | 35106 ft | 446 kts | 96° |
| 2026-05-04 18:58 | 47.31947 | 24.83653 | 35106 ft | 446 kts | 96° |
| 2026-05-04 18:58 | 47.30996 | 24.92642 | 35114 ft | 446 kts | 96° |
| 2026-05-04 18:59 | 47.30038 | 25.01616 | 35116 ft | 446 kts | 96° |
| 2026-05-04 18:59 | 47.29073 | 25.10598 | 35121 ft | 446 kts | 96° |
| 2026-05-04 19:00 | 47.28098 | 25.19605 | 35124 ft | 446 kts | 96° |
| 2026-05-04 19:00 | 47.27120 | 25.28580 | 35130 ft | 446 kts | 96° |
| 2026-05-04 19:01 | 47.26140 | 25.37502 | 35135 ft | 446 kts | 96° |
| 2026-05-04 19:01 | 47.25140 | 25.46532 | 35133 ft | 446 kts | 96° |
| 2026-05-04 19:02 | 47.24139 | 25.55496 | 35128 ft | 446 kts | 96° |
| 2026-05-04 19:02 | 47.23132 | 25.64464 | 35122 ft | 445 kts | 96° |
| 2026-05-04 19:03 | 47.22121 | 25.73406 | 35110 ft | 446 kts | 97° |
| 2026-05-04 19:03 | 47.21099 | 25.82374 | 35100 ft | 447 kts | 97° |
| 2026-05-04 19:04 | 47.20067 | 25.91380 | 35102 ft | 447 kts | 97° |
| 2026-05-04 19:04 | 47.19029 | 26.00353 | 35104 ft | 446 kts | 97° |
| 2026-05-04 19:05 | 47.17992 | 26.09249 | 35097 ft | 446 kts | 97° |
| 2026-05-04 19:05 | 47.16942 | 26.18199 | 35089 ft | 446 kts | 97° |
| 2026-05-04 19:06 | 47.15888 | 26.27105 | 34934 ft | 441 kts | 97° |
| 2026-05-04 19:06 | 47.15358 | 26.31567 | 34514 ft | 443 kts | 97° |
| 2026-05-04 19:06 | 47.14833 | 26.35971 | 33987 ft | 440 kts | 97° |
| 2026-05-04 19:07 | 47.14306 | 26.40379 | 33455 ft | 437 kts | 97° |
| 2026-05-04 19:07 | 47.13784 | 26.44722 | 32931 ft | 437 kts | 97° |
| 2026-05-04 19:07 | 47.13258 | 26.49103 | 32401 ft | 437 kts | 97° |
| 2026-05-04 19:07 | 47.12730 | 26.53479 | 31872 ft | 438 kts | 97° |
| 2026-05-04 19:08 | 47.12194 | 26.57902 | 31335 ft | 439 kts | 97° |
| 2026-05-04 19:08 | 47.11658 | 26.62317 | 30804 ft | 438 kts | 97° |
| 2026-05-04 19:08 | 47.11133 | 26.66614 | 30275 ft | 434 kts | 98° |
| 2026-05-04 19:08 | 47.10602 | 26.70947 | 29720 ft | 430 kts | 97° |
| 2026-05-04 19:09 | 47.10074 | 26.75240 | 29172 ft | 427 kts | 98° |
| 2026-05-04 19:09 | 47.09551 | 26.79487 | 28624 ft | 423 kts | 97° |
| 2026-05-04 19:09 | 47.09031 | 26.83695 | 28076 ft | 419 kts | 97° |
| 2026-05-04 19:09 | 47.08510 | 26.87892 | 27523 ft | 416 kts | 97° |
| 2026-05-04 19:10 | 47.07994 | 26.92049 | 26969 ft | 412 kts | 97° |
| 2026-05-04 19:10 | 47.07489 | 26.96097 | 26427 ft | 408 kts | 97° |
| 2026-05-04 19:10 | 47.06981 | 27.00161 | 25883 ft | 404 kts | 97° |
| 2026-05-04 19:10 | 47.06477 | 27.04180 | 25336 ft | 400 kts | 97° |
| 2026-05-04 19:11 | 47.05974 | 27.08172 | 24775 ft | 396 kts | 97° |
| 2026-05-04 19:11 | 47.05480 | 27.12087 | 24220 ft | 392 kts | 97° |
| 2026-05-04 19:11 | 47.04985 | 27.15998 | 23662 ft | 388 kts | 97° |
| 2026-05-04 19:11 | 47.04496 | 27.19850 | 23105 ft | 384 kts | 97° |
| 2026-05-04 19:12 | 47.04015 | 27.23629 | 22554 ft | 380 kts | 97° |
| 2026-05-04 19:12 | 47.03057 | 27.31124 | 21453 ft | 373 kts | 97° |
| 2026-05-04 19:12 | 47.02579 | 27.34843 | 20894 ft | 370 kts | 97° |
| 2026-05-04 19:13 | 47.02103 | 27.38536 | 20347 ft | 366 kts | 97° |
| 2026-05-04 19:13 | 47.01637 | 27.42144 | 19804 ft | 363 kts | 97° |
| 2026-05-04 19:13 | 47.01167 | 27.45780 | 19247 ft | 361 kts | 97° |
| 2026-05-04 19:13 | 47.00706 | 27.49341 | 18705 ft | 358 kts | 96° |
| 2026-05-04 19:14 | 47.00247 | 27.52871 | 18173 ft | 355 kts | 96° |
| 2026-05-04 19:14 | 46.99789 | 27.56387 | 17652 ft | 352 kts | 96° |
| 2026-05-04 19:14 | 46.99331 | 27.59897 | 17108 ft | 349 kts | 96° |
| 2026-05-04 19:14 | 46.98876 | 27.63374 | 16586 ft | 346 kts | 96° |
| 2026-05-04 19:15 | 46.98427 | 27.66789 | 16067 ft | 344 kts | 97° |
| 2026-05-04 19:15 | 46.97974 | 27.70227 | 15538 ft | 342 kts | 97° |
| 2026-05-04 19:15 | 46.97532 | 27.73581 | 15024 ft | 339 kts | 97° |
| 2026-05-04 19:15 | 46.97084 | 27.76967 | 14493 ft | 337 kts | 96° |
| 2026-05-04 19:16 | 46.96640 | 27.80323 | 13956 ft | 335 kts | 96° |
| 2026-05-04 19:16 | 46.96205 | 27.83601 | 13461 ft | 333 kts | 96° |
| 2026-05-04 19:16 | 46.95766 | 27.86908 | 12946 ft | 330 kts | 96° |
| 2026-05-04 19:16 | 46.95325 | 27.90218 | 12428 ft | 328 kts | 96° |
| 2026-05-04 19:17 | 46.94893 | 27.93455 | 11927 ft | 326 kts | 96° |
| 2026-05-04 19:17 | 46.94462 | 27.96679 | 11414 ft | 324 kts | 96° |
| 2026-05-04 19:17 | 46.94030 | 27.99886 | 11077 ft | 318 kts | 96° |
| 2026-05-04 19:17 | 46.93603 | 28.03047 | 10683 ft | 316 kts | 96° |
| 2026-05-04 19:18 | 46.93181 | 28.06162 | 10436 ft | 306 kts | 96° |
| 2026-05-04 19:18 | 46.92851 | 28.08868 | 10295 ft | 292 kts | 90° |
| 2026-05-04 19:18 | 46.93012 | 28.11649 | 10134 ft | 272 kts | 70° |
| 2026-05-04 19:18 | 46.93705 | 28.14142 | 9948 ft | 259 kts | 60° |
| 2026-05-04 19:19 | 46.94490 | 28.16447 | 9676 ft | 252 kts | 60° |
| 2026-05-04 19:19 | 46.95038 | 28.18869 | 9315 ft | 257 kts | 82° |
| 2026-05-04 19:19 | 46.94934 | 28.21459 | 9021 ft | 256 kts | 90° |
| 2026-05-04 19:19 | 46.94756 | 28.24050 | 8729 ft | 252 kts | 90° |
| 2026-05-04 19:20 | 46.94599 | 28.26557 | 8442 ft | 247 kts | 89° |
| 2026-05-04 19:20 | 46.94462 | 28.29031 | 8162 ft | 243 kts | 89° |
| 2026-05-04 19:20 | 46.94339 | 28.31462 | 7981 ft | 234 kts | 88° |
| 2026-05-04 19:20 | 46.94229 | 28.33773 | 7819 ft | 226 kts | 88° |
| 2026-05-04 19:21 | 46.94125 | 28.36033 | 7657 ft | 218 kts | 88° |
| 2026-05-04 19:21 | 46.94030 | 28.38186 | 7475 ft | 211 kts | 87° |
| 2026-05-04 19:21 | 46.93938 | 28.40328 | 7203 ft | 209 kts | 87° |
| 2026-05-04 19:21 | 46.93849 | 28.42421 | 6926 ft | 208 kts | 87° |
| 2026-05-04 19:22 | 46.93760 | 28.44521 | 6698 ft | 204 kts | 87° |
| 2026-05-04 19:22 | 46.93670 | 28.46557 | 6523 ft | 197 kts | 87° |
| 2026-05-04 19:22 | 46.93586 | 28.48568 | 6160 ft | 200 kts | 88° |
| 2026-05-04 19:22 | 46.93502 | 28.50597 | 5796 ft | 203 kts | 88° |
| 2026-05-04 19:23 | 46.93414 | 28.52685 | 5421 ft | 206 kts | 88° |
| 2026-05-04 19:23 | 46.93325 | 28.54763 | 5057 ft | 209 kts | 89° |
| 2026-05-04 19:23 | 46.93232 | 28.56892 | 4688 ft | 211 kts | 89° |
| 2026-05-04 19:23 | 46.93137 | 28.59055 | 4316 ft | 214 kts | 90° |
| 2026-05-04 19:24 | 46.92955 | 28.61221 | 3941 ft | 218 kts | 100° |
| 2026-05-04 19:24 | 46.92548 | 28.63349 | 3591 ft | 218 kts | 101° |
| 2026-05-04 19:24 | 46.92294 | 28.65451 | 3483 ft | 199 kts | 92° |
| 2026-05-04 19:24 | 46.92247 | 28.67347 | 3505 ft | 178 kts | 86° |
| 2026-05-04 19:25 | 46.92295 | 28.69120 | 3274 ft | 174 kts | 85° |
| 2026-05-04 19:25 | 46.92352 | 28.70891 | 3038 ft | 172 kts | 86° |
| 2026-05-04 19:25 | 46.92396 | 28.72608 | 2800 ft | 166 kts | 86° |
| 2026-05-04 19:25 | 46.92429 | 28.74262 | 2580 ft | 159 kts | 87° |
| 2026-05-04 19:26 | 46.92456 | 28.75804 | 2392 ft | 149 kts | 88° |
| 2026-05-04 19:26 | 46.92482 | 28.77284 | 2184 ft | 142 kts | 88° |
| 2026-05-04 19:26 | 46.92508 | 28.78719 | 2010 ft | 140 kts | 89° |
| 2026-05-04 19:26 | 46.92534 | 28.80128 | 1827 ft | 137 kts | 90° |
| 2026-05-04 19:27 | 46.92560 | 28.81510 | 1649 ft | 136 kts | 90° |
| 2026-05-04 19:27 | 46.92585 | 28.82891 | 1471 ft | 136 kts | 90° |
| 2026-05-04 19:27 | 46.92610 | 28.84268 | 1290 ft | 136 kts | 90° |
| 2026-05-04 19:27 | 46.92636 | 28.85649 | 1108 ft | 135 kts | 90° |
| 2026-05-04 19:28 | 46.92663 | 28.87029 | 925 ft | 135 kts | 90° |
| 2026-05-04 19:28 | 46.92689 | 28.88392 | 746 ft | 134 kts | 90° |
| 2026-05-04 19:28 | 46.92715 | 28.89752 | 590 ft | 134 kts | 90° |
| 2026-05-04 19:28 | 46.92739 | 28.91109 | 404 ft | 133 kts | 90° |
| 2026-05-04 19:29 | 46.92762 | 28.92348 | 348 ft | 100 kts | 89° |
| 2026-05-04 19:29 | 46.92780 | 28.93061 | 330 ft | 43 kts | 88° |
| 2026-05-04 19:29 | 46.92821 | 28.93397 | 319 ft | 27 kts | 31° |
| 2026-05-04 19:29 | 46.92970 | 28.93408 | 319 ft | 18 kts | 359° |
| 2026-05-04 19:30 | 46.93083 | 28.93422 | 319 ft | 11 kts | 11° |
| 2026-05-04 19:30 | 46.93163 | 28.93444 | 318 ft | 12 kts | 7° |
| 2026-05-04 19:30 | 46.93204 | 28.93518 | 316 ft | 12 kts | 97° |
| 2026-05-04 19:30 | 46.93190 | 28.93671 | 311 ft | 15 kts | 97° |